Track Кармель Михаил Амурская обл.

Time Latitude Longitude Accuracy (66% radius in meters) Altitude (meters) Speed (km/hour) Bearing (degrees) Battery (%) GPS flag
04:09:27 43.170812 132.075974 3.5 64.5 0 0 60 1 delete
04:09:18 43.170861 132.075946 3 64.300003051758 0.74000000953674 123.28857421875 60 1 delete
04:09:12 43.170928 132.075884 3 66.800003051758 0.85999995470047 149.82055664062 60 1 delete
04:09:00 43.170998 132.075868 3.5 70 0 0 60 1 delete
04:08:54 43.171061 132.075836 3 72 1.1699999570847 150.88073730469 60 1 delete
04:08:48 43.171106 132.075792 2.5 72.400001525879 0.47999998927116 100.21179199219 60 1 delete
04:08:42 43.171160 132.075762 2.5 72.5 0.87000000476837 174.86389160156 60 1 delete
04:08:36 43.171232 132.075759 2.5 74.900001525879 0.79999995231628 160.7958984375 60 1 delete
04:08:30 43.171281 132.075727 3 73.599998474121 0.89999997615814 159.169921875 60 1 delete
04:07:21 43.171346 132.075710 5.5 84.800003051758 0.64999997615814 18.890991210938 60 1 delete
04:05:57 43.171300 132.075725 5.5 87 0.19999998807907 192.44201660156 60 1 delete
04:05:48 43.171324 132.075800 5.5 89.400001525879 0.10999999940395 109.30847167969 60 1 delete
04:05:39 43.171353 132.075731 7.5 86.199996948242 0.20999999344349 234.34936523438 60 1 delete
04:05:12 43.171361 132.075829 8 84.300003051758 0.23999999463558 165.56945800781 60 1 delete
04:05:00 43.171406 132.075760 9.5 82.099998474121 0.35999998450279 60.732421875 60 1 delete
04:04:54 43.171359 132.075647 9.5 83.400001525879 0.10999999940395 319.42749023438 60 1 delete
04:04:42 43.171351 132.075713 7 83.599998474121 0.10999999940395 324.31091308594 60 1 delete
04:04:27 43.171343 132.075781 7 83.800003051758 0.3299999833107 68.060302734375 60 1 delete
04:04:21 43.171408 132.075749 6 84.800003051758 0.12999999523163 330.33142089844 60 1 delete
04:04:09 43.171357 132.075782 5.5 83.699996948242 0.03999999910593 161.33422851562 60 1 delete
04:03:54 43.171368 132.075719 5.5 80.400001525879 0.41999998688698 30.8056640625 60 1 delete
04:02:45 43.171305 132.075731 3.5 81.099998474121 0.18999999761581 23.076782226562 60 1 delete
04:02:27 43.171312 132.075819 5.5 83.900001525879 0.55000001192093 197.90771484375 60 1 delete
04:01:12 43.171366 132.075803 4.5 93 0.1499999910593 316.85668945312 60 1 delete
04:00:39 43.171343 132.075858 3.5 93.099998474121 0.28000000119209 73.602905273438 60 1 delete
04:00:15 43.171306 132.075821 5 87.400001525879 0.37999999523163 21.181640625 60 1 delete
03:41:12 43.171346 132.075776 6 83.400001525879 0.47999998927116 10.491943359375 62 1 delete
03:41:06 43.171278 132.075798 5.5 83.900001525879 0.34000000357628 234.81628417969 62 1 delete
03:40:39 43.171329 132.075801 5.5 79.300003051758 0.0099999997764826 114.10400390625 62 1 delete
03:40:27 43.171304 132.075701 5.5 83 0.43999999761581 183.36181640625 62 1 delete
03:38:45 43.171352 132.075717 7.5 88 0.25 239.34265136719 62 1 delete
03:38:27 43.171389 132.075798 5.5 87.599998474121 0.10999999940395 358.22570800781 62 1 delete
03:37:36 43.171394 132.075693 7 83.400001525879 0.42999997735023 256.07482910156 64 1 delete
03:37:18 43.171375 132.075761 7 86.5 0.37000000476837 4.306640625 64 1 delete
03:37:09 43.171328 132.075799 7.5 85.199996948242 0 0 64 1 delete
03:36:42 43.171357 132.075850 8.5 82.900001525879 0.35999998450279 109.86328125 64 1 delete
03:36:12 43.171351 132.075776 6.5 83 0.25999999046326 163.13598632812 64 1 delete
03:35:48 43.171404 132.075722 6 84.300003051758 0.18999999761581 74.174194335938 64 1 delete
03:34:15 43.171358 132.075728 4.5 80.400001525879 0.42999997735023 167.55249023438 64 1 delete
03:33:09 43.171413 132.075723 4 80 0.029999999329448 88.4619140625 64 1 delete
03:32:51 43.171424 132.075622 6.5 77.599998474121 0.26999998092651 17.589111328125 64 1 delete
03:32:42 43.171368 132.075705 6.5 80.300003051758 0.18999999761581 16.962890625 64 1 delete
03:27:33 43.171339 132.075763 5 85.599998474121 0.049999997019768 225.22521972656 64 1 delete
03:18:12 43.171404 132.075775 3.5 80.400001525879 0 0 64 1 delete
03:15:09 43.171367 132.075716 5 85.099998474121 0.10999999940395 311.84143066406 67 1 delete
03:13:54 43.171353 132.075809 3 88.400001525879 0 0 67 1 delete
02:50:30 43.172013 132.073173 7.5 77.599998474121 1.6999999284744 106.10595703125 70 1 delete
02:50:27 43.172054 132.073104 7.5 77.400001525879 1.8299999237061 103.44177246094 70 1 delete
02:50:18 43.172077 132.073021 6 80.199996948242 0.75 116.16943359375 70 1 delete
02:50:06 43.172028 132.073026 6 83 0.75999999046326 303.90380859375 70 1 delete